Time;durP1;ratioP1;P1;durP2;ratioP2;P2;SDS_P1;SDS_P2;PMS_P1;PMS_P2;Temp;Humidity;BMP_temperature;BMP_pressure;BME280_temperature;BME280_humidity;BME280_pressure;Samples;Min_cycle;Max_cycle;Signal;HPM_P1;HPM_P2
2022/05/01 00:01:27;;;;;;;;;;;;;;;24.09;14.54;100999.50;5136215;27;20390;-80
2022/05/01 00:03:52;;;;;;;;;;;;;;;24.08;14.59;101000.63;5135871;27;19926;-77
2022/05/01 00:06:19;;;;;;;;;;;;;;;24.07;14.34;100996.22;5118016;27;20029;-79
2022/05/01 00:08:44;;;;;;;;;;;;;;;24.08;14.44;101000.63;5136164;27;19916;-76
2022/05/01 00:11:09;;;;;;;;;;;;;;;24.08;14.33;101002.53;5136195;27;20341;-79
2022/05/01 00:13:35;;;;;;;;;;;;;;;24.08;14.51;100997.88;5136027;27;20026;-77
2022/05/01 00:16:00;;;;;;;;;;;;;;;24.09;14.70;100994.06;5136060;27;19915;-76
2022/05/01 00:18:25;;;;;;;;;;;;;;;24.06;14.30;101002.78;5136065;27;19942;-77
2022/05/01 00:20:50;;;;;;;;;;;;;;;24.08;14.55;101002.53;5135927;27;19919;-77
2022/05/01 00:23:16;;;;;;;;;;;;;;;24.06;14.66;100999.22;5135933;27;19984;-78
2022/05/01 00:25:42;;;;;;;;;;;;;;;24.05;14.63;100997.59;5135181;27;19927;-78
2022/05/01 00:28:11;;;;;;;;;;;;;;;24.06;14.63;101005.53;5117522;27;20011;-77
2022/05/01 00:30:38;;;;;;;;;;;;;;;24.06;14.46;101000.06;5135616;27;19915;-78
2022/05/01 00:38:31;;;;;;;;;;;;;;;24.05;14.48;101003.06;5135864;27;19941;-78
2022/05/01 00:40:59;;;;;;;;;;;;;;;24.05;14.40;101003.88;5135471;27;19916;-77
2022/05/01 00:43:25;;;;;;;;;;;;;;;24.05;14.43;101003.88;5117323;27;19921;-77
2022/05/01 00:45:53;;;;;;;;;;;;;;;24.05;14.38;101003.88;5117225;27;20385;-78
2022/05/01 00:48:18;;;;;;;;;;;;;;;24.05;14.36;101003.06;5116823;27;19915;-78
2022/05/01 00:50:43;;;;;;;;;;;;;;;24.03;14.48;101008.78;5135411;27;19915;-79
2022/05/01 00:53:09;;;;;;;;;;;;;;;24.05;14.49;101000.31;5117207;27;20400;-78
2022/05/01 00:55:35;;;;;;;;;;;;;;;24.06;14.49;101013.72;5117587;27;19922;-79
2022/05/01 00:58:01;;;;;;;;;;;;;;;24.06;14.42;101008.25;5135385;27;20040;-78
2022/05/01 01:00:26;;;;;;;;;;;;;;;24.05;14.43;101006.59;5116903;27;19994;-78
2022/05/01 01:02:51;;;;;;;;;;;;;;;24.05;14.42;101011.25;5117089;28;19916;-76
2022/05/01 01:05:17;;;;;;;;;;;;;;;24.05;14.47;101009.31;5134918;27;19915;-79
2022/05/01 01:07:42;;;;;;;;;;;;;;;24.04;14.23;101007.66;5135211;27;19926;-78
2022/05/01 01:10:08;;;;;;;;;;;;;;;24.04;14.22;100996.75;5135431;27;20276;-78
2022/05/01 01:15:17;;;;;;;;;;;;;;;24.04;14.39;101006.84;5135301;28;19921;-77
2022/05/01 01:17:42;;;;;;;;;;;;;;;24.03;14.42;101006.03;5134895;27;20292;-76
2022/05/01 01:20:11;;;;;;;;;;;;;;;24.03;14.45;101000.59;5138410;27;19941;-78
2022/05/01 01:22:36;;;;;;;;;;;;;;;24.01;14.42;101000.03;5120926;27;20391;-76
2022/05/01 01:25:01;;;;;;;;;;;;;;;24.01;14.43;101002.75;5139516;27;19927;-77
2022/05/01 01:27:27;;;;;;;;;;;;;;;24.03;14.42;100997.84;5139417;27;20408;-77
2022/05/01 01:32:39;;;;;;;;;;;;;;;24.00;14.34;100977.34;5123736;27;20384;-78
2022/05/01 01:35:05;;;;;;;;;;;;;;;24.01;14.22;100983.66;5121910;27;19916;-76
2022/05/01 01:37:30;;;;;;;;;;;;;;;24.02;14.21;100979.81;5139010;27;19923;-78
2022/05/01 01:39:55;;;;;;;;;;;;;;;24.02;14.39;100987.19;5139294;27;19934;-77
2022/05/01 01:42:21;;;;;;;;;;;;;;;24.01;14.27;100983.66;5131443;27;19978;-79
2022/05/01 01:44:46;;;;;;;;;;;;;;;24.02;14.49;100982.53;5126854;27;19919;-77
2022/05/01 01:47:12;;;;;;;;;;;;;;;24.02;14.40;100987.19;5121687;27;20006;-78
2022/05/01 01:49:37;;;;;;;;;;;;;;;24.03;14.41;100989.66;5139666;27;19960;-77
2022/05/01 01:52:02;;;;;;;;;;;;;;;24.03;14.27;100997.03;5151255;27;19907;-77
2022/05/01 01:54:28;;;;;;;;;;;;;;;24.00;14.42;100992.91;5150667;27;20018;-77
2022/05/01 01:56:53;;;;;;;;;;;;;;;24.03;14.25;100997.03;5153568;27;19916;-78
2022/05/01 01:59:18;;;;;;;;;;;;;;;24.02;14.10;101009.84;5148475;27;19916;-77
2022/05/01 02:01:43;;;;;;;;;;;;;;;24.02;14.15;100998.94;5152280;27;19927;-77
2022/05/01 02:04:10;;;;;;;;;;;;;;;24.02;14.14;101004.38;5151978;27;19984;-78
2022/05/01 02:06:36;;;;;;;;;;;;;;;24.00;14.16;100992.91;5148544;27;19916;-78
2022/05/01 02:09:06;;;;;;;;;;;;;;;24.00;14.17;100995.66;5146144;27;19963;-77
2022/05/01 02:11:31;;;;;;;;;;;;;;;24.01;14.09;100994.56;5146410;27;19926;-77
2022/05/01 02:13:56;;;;;;;;;;;;;;;24.00;14.11;100995.66;5147485;27;19920;-78
2022/05/01 02:16:22;;;;;;;;;;;;;;;24.00;14.35;100995.66;5151394;27;19919;-78
2022/05/01 02:18:47;;;;;;;;;;;;;;;24.01;14.13;101000.03;5144776;27;19964;-77
2022/05/01 02:23:56;;;;;;;;;;;;;;;24.00;14.15;100992.91;5146055;27;20288;-77
2022/05/01 02:26:21;;;;;;;;;;;;;;;24.00;14.00;100998.38;5148882;27;19915;-77
2022/05/01 02:28:47;;;;;;;;;;;;;;;24.00;14.30;101007.38;5150208;27;20010;-78
2022/05/01 02:31:12;;;;;;;;;;;;;;;24.00;14.31;100998.38;5154273;27;20018;-78
2022/05/01 02:33:38;;;;;;;;;;;;;;;24.00;14.26;101001.09;5149548;27;19916;-79
2022/05/01 02:36:05;;;;;;;;;;;;;;;24.00;14.15;100995.66;5140004;27;20396;-78
2022/05/01 02:38:30;;;;;;;;;;;;;;;24.02;14.28;101000.84;5137755;27;19922;-76
2022/05/01 02:40:55;;;;;;;;;;;;;;;24.01;14.16;100997.31;5137941;27;19916;-77
2022/05/01 02:43:20;;;;;;;;;;;;;;;24.01;14.19;100997.31;5137653;27;19916;-77
2022/05/01 02:45:46;;;;;;;;;;;;;;;24.00;14.07;100991.00;5137890;27;19915;-78
2022/05/01 02:48:11;;;;;;;;;;;;;;;24.00;14.06;101001.91;5137804;27;20369;-76
2022/05/01 02:50:36;;;;;;;;;;;;;;;24.00;14.10;101003.84;5137706;27;19939;-78
2022/05/01 02:53:04;;;;;;;;;;;;;;;24.00;14.11;101007.38;5137589;27;19916;-76
2022/05/01 02:55:29;;;;;;;;;;;;;;;24.00;14.06;100996.47;5137538;27;20466;-78
2022/05/01 02:57:54;;;;;;;;;;;;;;;24.02;14.19;100993.47;5137908;27;19954;-76
2022/05/01 03:00:22;;;;;;;;;;;;;;;24.02;14.09;100993.47;5137793;27;20358;-78
2022/05/01 03:02:48;;;;;;;;;;;;;;;24.03;14.22;101002.50;5137581;27;19915;-75
2022/05/01 03:05:13;;;;;;;;;;;;;;;24.02;14.29;100996.19;5137507;27;19919;-79
2022/05/01 03:07:38;;;;;;;;;;;;;;;24.02;14.23;100996.19;5137460;27;20018;-77
2022/05/01 03:10:04;;;;;;;;;;;;;;;24.02;14.26;100993.47;5119285;27;19915;-78
2022/05/01 03:12:29;;;;;;;;;;;;;;;24.01;14.30;100997.31;5137099;27;20006;-76
2022/05/01 03:14:56;;;;;;;;;;;;;;;24.02;14.16;100998.94;5137377;27;19919;-79
2022/05/01 03:17:22;;;;;;;;;;;;;;;24.01;14.41;100991.84;5118931;27;20048;-76
2022/05/01 03:22:31;;;;;;;;;;;;;;;24.01;14.44;100975.47;5136171;27;19923;-76
2022/05/01 03:24:58;;;;;;;;;;;;;;;23.99;14.49;100978.44;5129449;27;19949;-77
2022/05/01 03:27:23;;;;;;;;;;;;;;;24.00;14.54;100974.63;5136739;27;19919;-76
2022/05/01 03:30:15;;;;;;;;;;;;;;;24.01;14.46;100983.66;5137012;27;19980;-77
2022/05/01 03:32:33;;;;;;;;;;;;;;;24.02;14.46;100988.00;5136806;27;19920;-78
2022/05/01 03:35:00;;;;;;;;;;;;;;;24.02;14.46;100990.75;5118502;27;20265;-76
2022/05/01 03:37:25;;;;;;;;;;;;;;;24.02;14.49;100993.47;5136945;27;20006;-78
2022/05/01 03:39:51;;;;;;;;;;;;;;;24.01;14.61;100991.84;5136689;27;20364;-76
2022/05/01 03:42:16;;;;;;;;;;;;;;;24.00;14.70;100990.19;5135428;27;19915;-77
2022/05/01 03:44:41;;;;;;;;;;;;;;;23.99;14.66;100988.53;5118042;27;19929;-77
2022/05/01 03:47:07;;;;;;;;;;;;;;;23.99;14.71;100994.00;5136695;27;20326;-78
2022/05/01 03:49:33;;;;;;;;;;;;;;;24.00;14.75;100992.91;5136429;27;19945;-77
2022/05/01 03:51:58;;;;;;;;;;;;;;;24.01;14.69;100997.31;5136376;27;19916;-77
2022/05/01 03:54:24;;;;;;;;;;;;;;;24.00;14.59;100992.91;5136592;27;19919;-76
2022/05/01 03:56:49;;;;;;;;;;;;;;;23.99;14.83;101003.03;5136555;27;20437;-77
2022/05/01 03:59:14;;;;;;;;;;;;;;;24.00;14.81;101003.84;5136963;27;20373;-77
2022/05/01 04:01:40;;;;;;;;;;;;;;;23.99;14.81;100999.44;5135898;27;19923;-78
2022/05/01 04:04:05;;;;;;;;;;;;;;;23.99;14.75;101007.63;5136266;27;19952;-76
2022/05/01 04:06:30;;;;;;;;;;;;;;;24.01;14.85;101005.50;5136350;27;19923;-76
2022/05/01 04:08:55;;;;;;;;;;;;;;;24.00;14.99;101001.09;5136524;27;19955;-77
2022/05/01 04:11:21;;;;;;;;;;;;;;;24.01;14.83;101002.75;5136171;27;20398;-77
2022/05/01 04:13:48;;;;;;;;;;;;;;;24.01;14.68;100997.31;5136066;27;19919;-75
2022/05/01 04:16:14;;;;;;;;;;;;;;;24.00;14.90;101007.38;5136078;27;19932;-77
2022/05/01 04:18:39;;;;;;;;;;;;;;;23.99;14.84;100999.44;5117545;27;20315;-77
2022/05/01 04:21:04;;;;;;;;;;;;;;;24.00;14.90;101004.66;5135751;27;19968;-78
2022/05/01 04:23:30;;;;;;;;;;;;;;;24.00;15.09;101003.84;5135848;27;20373;-75
2022/05/01 04:25:55;;;;;;;;;;;;;;;23.99;14.75;100991.25;5135463;27;19947;-78
2022/05/01 04:28:20;;;;;;;;;;;;;;;23.99;14.93;100994.00;5135611;27;19916;-76
2022/05/01 04:30:46;;;;;;;;;;;;;;;24.00;14.89;100998.38;5136248;27;20353;-78
2022/05/01 04:33:14;;;;;;;;;;;;;;;23.98;14.70;100993.16;5135098;27;20535;-77
2022/05/01 04:35:43;;;;;;;;;;;;;;;23.99;15.00;101004.91;5135963;27;19938;-79
2022/05/01 04:38:11;;;;;;;;;;;;;;;23.98;14.89;101003.28;5135897;27;19915;-76
2022/05/01 04:40:40;;;;;;;;;;;;;;;23.98;15.04;100993.16;5135747;27;20369;-77
2022/05/01 04:43:09;;;;;;;;;;;;;;;23.98;14.93;100992.34;5135989;27;19960;-76
2022/05/01 04:45:35;;;;;;;;;;;;;;;23.97;14.86;100985.25;5135939;27;19968;-78
2022/05/01 04:48:01;;;;;;;;;;;;;;;23.98;14.97;100987.72;5135758;27;19915;-76
2022/05/01 04:50:26;;;;;;;;;;;;;;;23.97;14.87;100991.53;5135372;27;20361;-77
2022/05/01 04:52:52;;;;;;;;;;;;;;;23.93;14.76;100974.03;5135965;27;19937;-76
2022/05/01 04:55:17;;;;;;;;;;;;;;;23.97;15.06;100980.63;5135345;27;19916;-78
2022/05/01 04:57:42;;;;;;;;;;;;;;;23.98;14.86;100981.44;5135367;27;19960;-77
2022/05/01 05:00:08;;;;;;;;;;;;;;;23.98;14.76;100986.91;5135002;27;19915;-79
2022/05/01 05:02:36;;;;;;;;;;;;;;;23.99;14.82;100983.06;5135839;27;19996;-77
2022/05/01 05:05:03;;;;;;;;;;;;;;;23.99;15.03;100981.19;5116963;28;20001;-78
2022/05/01 05:07:29;;;;;;;;;;;;;;;23.99;15.07;100972.16;5134837;27;20349;-77
2022/05/01 05:09:54;;;;;;;;;;;;;;;23.99;15.03;100969.41;5135306;27;19920;-79
2022/05/01 05:12:19;;;;;;;;;;;;;;;23.98;15.06;100965.06;5135116;27;19961;-77
2022/05/01 05:14:46;;;;;;;;;;;;;;;23.99;15.14;100972.16;5134767;27;20282;-78
2022/05/01 05:17:11;;;;;;;;;;;;;;;23.99;15.00;100966.69;5135159;28;19916;-76
2022/05/01 05:19:37;;;;;;;;;;;;;;;23.97;15.21;100964.25;5135197;28;19938;-77
2022/05/01 05:22:03;;;;;;;;;;;;;;;23.99;15.09;100966.69;5135262;28;20281;-77
2022/05/01 05:24:28;;;;;;;;;;;;;;;23.98;15.19;100965.88;5134577;28;19919;-77
2022/05/01 05:26:53;;;;;;;;;;;;;;;23.98;15.12;100954.13;5134794;28;19927;-76
2022/05/01 05:29:19;;;;;;;;;;;;;;;23.98;15.21;100954.13;5135173;28;19916;-76
2022/05/01 05:31:44;;;;;;;;;;;;;;;23.97;15.35;100953.31;5135071;28;20391;-75
2022/05/01 05:34:09;;;;;;;;;;;;;;;23.98;15.28;100949.50;5134942;28;19916;-78
2022/05/01 05:36:34;;;;;;;;;;;;;;;23.98;15.22;100954.94;5134937;28;19998;-76
2022/05/01 05:39:00;;;;;;;;;;;;;;;23.97;15.41;100957.94;5134963;28;20326;-78
2022/05/01 05:41:25;;;;;;;;;;;;;;;23.96;15.48;100956.31;5134936;28;19915;-76
2022/05/01 05:43:51;;;;;;;;;;;;;;;23.98;15.27;100954.13;5135117;28;19958;-79
2022/05/01 05:46:17;;;;;;;;;;;;;;;24.00;15.26;100957.41;5134991;28;20019;-76
2022/05/01 05:48:42;;;;;;;;;;;;;;;24.00;15.32;100957.41;5134750;28;20365;-78
2022/05/01 05:51:09;;;;;;;;;;;;;;;24.00;15.21;100968.34;5134861;28;19919;-77
2022/05/01 05:53:34;;;;;;;;;;;;;;;23.99;15.49;100964.81;5134805;28;20322;-79
2022/05/01 05:56:00;;;;;;;;;;;;;;;24.00;15.42;100962.88;5134781;28;19919;-78
2022/05/01 05:58:25;;;;;;;;;;;;;;;24.02;15.45;100968.09;5134450;28;19915;-76
2022/05/01 06:00:50;;;;;;;;;;;;;;;24.01;15.40;100975.47;5134578;28;19960;-77
2022/05/01 06:03:16;;;;;;;;;;;;;;;24.01;15.55;100983.66;5134683;28;19916;-77
2022/05/01 06:05:42;;;;;;;;;;;;;;;24.01;15.27;100975.47;5118611;27;19915;-78
2022/05/01 06:08:08;;;;;;;;;;;;;;;24.02;15.46;100971.63;5138487;27;19998;-79
2022/05/01 06:10:33;;;;;;;;;;;;;;;23.99;15.25;100970.25;5138641;27;19923;-76
2022/05/01 06:12:58;;;;;;;;;;;;;;;24.01;15.39;100970.00;5138595;27;19923;-77
2022/05/01 06:15:24;;;;;;;;;;;;;;;24.00;15.45;100971.06;5138612;27;20059;-78
2022/05/01 06:17:51;;;;;;;;;;;;;;;24.01;15.36;100975.47;5138043;27;20322;-76
2022/05/01 06:20:16;;;;;;;;;;;;;;;24.00;15.35;100968.34;5138815;27;19951;-77
2022/05/01 06:22:41;;;;;;;;;;;;;;;24.00;15.39;100957.41;5138061;27;20395;-77
2022/05/01 06:25:07;;;;;;;;;;;;;;;24.00;15.27;100957.41;5138376;27;20323;-78
2022/05/01 06:27:32;;;;;;;;;;;;;;;24.00;15.40;100951.97;5138308;27;19915;-77
2022/05/01 06:29:57;;;;;;;;;;;;;;;24.02;15.47;100951.69;5138887;27;19915;-77
2022/05/01 06:32:23;;;;;;;;;;;;;;;24.01;15.47;100953.63;5138534;27;20319;-76
2022/05/01 06:34:48;;;;;;;;;;;;;;;24.00;15.63;100947.31;5139062;27;19953;-76
2022/05/01 06:37:13;;;;;;;;;;;;;;;24.01;15.60;100939.97;5120001;27;20443;-77
2022/05/01 06:39:38;;;;;;;;;;;;;;;24.02;15.78;100946.25;5138437;27;19915;-77
2022/05/01 06:42:05;;;;;;;;;;;;;;;24.01;15.91;100942.69;5137865;27;19962;-77
2022/05/01 06:44:30;;;;;;;;;;;;;;;24.00;15.83;100947.31;5139939;27;19922;-77
2022/05/01 06:46:55;;;;;;;;;;;;;;;24.00;15.94;100943.78;5139228;27;20280;-76
2022/05/01 06:49:21;;;;;;;;;;;;;;;24.01;16.11;100931.78;5138740;27;19915;-77
2022/05/01 06:51:46;;;;;;;;;;;;;;;24.01;16.27;100931.78;5138223;27;19916;-77
2022/05/01 06:54:11;;;;;;;;;;;;;;;24.03;16.01;100939.72;5138441;27;19994;-77
2022/05/01 06:56:37;;;;;;;;;;;;;;;24.03;16.21;100936.97;5138333;27;20370;-76
2022/05/01 06:59:02;;;;;;;;;;;;;;;24.02;16.12;100933.41;5138575;27;19916;-77
2022/05/01 07:01:28;;;;;;;;;;;;;;;24.01;16.14;100937.25;5119616;27;19915;-77
2022/05/01 07:03:53;;;;;;;;;;;;;;;24.00;16.17;100932.84;5138912;27;20429;-77
2022/05/01 07:06:18;;;;;;;;;;;;;;;24.02;16.45;100927.13;5119913;27;19916;-76
2022/05/01 07:08:43;;;;;;;;;;;;;;;24.02;16.20;100933.41;5138562;27;20471;-77
2022/05/01 07:11:09;;;;;;;;;;;;;;;24.02;16.34;100933.41;5137943;27;19922;-77
2022/05/01 07:13:35;;;;;;;;;;;;;;;24.02;16.44;100927.13;5137463;27;19916;-79
2022/05/01 07:16:01;;;;;;;;;;;;;;;24.02;16.26;100921.66;5136919;27;19915;-77
2022/05/01 07:18:26;;;;;;;;;;;;;;;24.03;16.21;100934.25;5137488;27;19922;-78
2022/05/01 07:20:51;;;;;;;;;;;;;;;24.02;16.24;100930.69;5137598;27;20362;-76
2022/05/01 07:23:21;;;;;;;;;;;;;;;24.02;16.11;100922.47;5137263;27;19919;-79
2022/05/01 07:25:47;;;;;;;;;;;;;;;24.03;16.00;100929.59;5137121;27;19923;-76
2022/05/01 07:28:12;;;;;;;;;;;;;;;24.02;16.42;100927.94;5137196;27;20349;-77
2022/05/01 07:30:37;;;;;;;;;;;;;;;24.03;16.27;100929.59;5137190;27;19922;-77
2022/05/01 07:33:02;;;;;;;;;;;;;;;24.02;16.40;100922.47;5137865;27;19959;-79
2022/05/01 07:35:28;;;;;;;;;;;;;;;24.03;16.38;100937.78;5137236;27;20358;-75
2022/05/01 07:37:53;;;;;;;;;;;;;;;24.04;16.28;100936.69;5137128;27;19920;-77
2022/05/01 07:40:20;;;;;;;;;;;;;;;24.04;16.35;100935.88;5137177;27;19976;-76
2022/05/01 07:42:45;;;;;;;;;;;;;;;24.04;16.21;100942.16;5137139;27;20062;-77
2022/05/01 07:45:10;;;;;;;;;;;;;;;24.04;16.35;100935.88;5136993;27;19919;-77
2022/05/01 07:47:36;;;;;;;;;;;;;;;24.05;16.31;100938.34;5136858;27;19922;-77
2022/05/01 07:50:01;;;;;;;;;;;;;;;24.05;16.21;100935.63;5136770;27;20010;-77
2022/05/01 07:52:27;;;;;;;;;;;;;;;24.04;16.27;100931.22;5137007;27;20020;-79
2022/05/01 07:54:52;;;;;;;;;;;;;;;24.03;16.19;100926.88;5137228;27;19916;-76
2022/05/01 07:57:17;;;;;;;;;;;;;;;24.05;16.20;100927.41;5136437;27;20361;-79
2022/05/01 07:59:42;;;;;;;;;;;;;;;24.04;16.21;100917.56;5136579;27;19915;-76
2022/05/01 08:02:08;;;;;;;;;;;;;;;24.05;16.43;100923.88;5136363;27;20332;-80
2022/05/01 08:04:34;;;;;;;;;;;;;;;24.05;16.17;100923.88;5117994;27;19923;-78
2022/05/01 08:07:00;;;;;;;;;;;;;;;24.04;16.32;100924.94;5136059;27;20003;-75
2022/05/01 08:09:26;;;;;;;;;;;;;;;24.04;16.13;100920.31;5135953;27;19926;-78
2022/05/01 08:11:51;;;;;;;;;;;;;;;24.05;16.17;100930.16;5136306;27;19916;-77
2022/05/01 08:14:17;;;;;;;;;;;;;;;24.06;15.98;100930.97;5136302;27;19915;-78
2022/05/01 08:16:42;;;;;;;;;;;;;;;24.05;16.15;100927.41;5136349;27;20349;-76
2022/05/01 08:21:52;;;;;;;;;;;;;;;24.04;16.20;100920.31;5135798;27;19923;-77
2022/05/01 08:24:17;;;;;;;;;;;;;;;24.05;15.86;100921.97;5135622;27;19919;-77
2022/05/01 08:26:47;;;;;;;;;;;;;;;24.04;16.10;100917.56;5135571;27;19925;-79
2022/05/01 08:29:13;;;;;;;;;;;;;;;24.05;16.15;100916.50;5135184;27;19951;-77
2022/05/01 08:31:38;;;;;;;;;;;;;;;24.04;16.22;100917.56;5135663;27;19922;-76
2022/05/01 08:34:03;;;;;;;;;;;;;;;24.04;16.11;100914.03;5135745;27;20005;-77
2022/05/01 08:36:29;;;;;;;;;;;;;;;24.05;16.26;100916.50;5135867;27;19923;-79
2022/05/01 08:38:54;;;;;;;;;;;;;;;24.05;15.91;100915.69;5135662;27;20403;-78
2022/05/01 08:41:19;;;;;;;;;;;;;;;24.05;16.11;100911.03;5135284;27;19915;-76
2022/05/01 08:43:45;;;;;;;;;;;;;;;24.05;16.07;100911.03;5135357;27;20270;-77
2022/05/01 08:46:29;;;;;;;;;;;;;;;24.07;16.11;100908.06;5135159;27;19959;-75
2022/05/01 08:49:04;;;;;;;;;;;;;;;24.07;16.16;100899.84;5135228;27;19919;-77
2022/05/01 08:51:30;;;;;;;;;;;;;;;24.09;16.06;100894.94;5135224;27;19915;-78
2022/05/01 08:53:56;;;;;;;;;;;;;;;24.10;16.12;100899.34;5135381;27;19976;-76
2022/05/01 08:56:21;;;;;;;;;;;;;;;24.08;16.01;100888.69;5135595;27;20374;-77
2022/05/01 08:58:47;;;;;;;;;;;;;;;24.09;16.14;100894.94;5134980;27;19923;-76
2022/05/01 09:01:12;;;;;;;;;;;;;;;24.08;16.11;100896.88;5116972;27;19922;-78
2022/05/01 09:03:39;;;;;;;;;;;;;;;24.06;15.91;100885.41;5116887;27;20361;-75
2022/05/01 09:06:04;;;;;;;;;;;;;;;24.08;15.86;100883.22;5135351;27;19920;-77
2022/05/01 09:08:29;;;;;;;;;;;;;;;24.08;16.10;100890.59;5134933;27;19976;-77
2022/05/01 09:10:55;;;;;;;;;;;;;;;24.07;16.07;100887.03;5135178;27;19921;-78
2022/05/01 09:13:23;;;;;;;;;;;;;;;24.09;15.94;100886.75;5134880;27;20314;-77
2022/05/01 09:15:48;;;;;;;;;;;;;;;24.07;16.01;100878.81;5135330;27;19922;-77
2022/05/01 09:18:14;;;;;;;;;;;;;;;24.07;15.93;100878.00;5135267;28;20281;-76
2022/05/01 09:20:58;;;;;;;;;;;;;;;24.06;15.91;100873.63;5135215;28;19919;-78
2022/05/01 09:23:35;;;;;;;;;;;;;;;24.09;16.16;100879.38;5135149;28;19941;-77
2022/05/01 09:26:01;;;;;;;;;;;;;;;24.06;16.17;100870.91;5094763;28;19985;-77
2022/05/01 09:28:26;;;;;;;;;;;;;;;24.08;15.86;100871.47;5094173;28;20358;-77
2022/05/01 09:30:51;;;;;;;;;;;;;;;24.08;15.80;100866.84;5093745;28;19916;-77
2022/05/01 09:33:19;;;;;;;;;;;;;;;24.08;15.97;100866.84;5094132;28;19916;-78
2022/05/01 09:35:44;;;;;;;;;;;;;;;24.07;16.01;100859.72;5092954;28;19946;-77
2022/05/01 09:38:09;;;;;;;;;;;;;;;24.10;15.77;100870.09;5094032;28;20448;-78
2022/05/01 09:40:35;;;;;;;;;;;;;;;24.10;15.84;100855.66;5096265;28;19922;-75
2022/05/01 09:43:00;;;;;;;;;;;;;;;24.13;15.73;100855.13;5096806;28;19916;-78
2022/05/01 09:45:31;;;;;;;;;;;;;;;24.13;15.62;100852.38;5098679;28;19963;-76
2022/05/01 09:47:57;;;;;;;;;;;;;;;24.11;15.90;100854.53;5096929;28;19916;-77
2022/05/01 09:50:37;;;;;;;;;;;;;;;24.12;15.75;100857.00;5098260;28;20326;-76
2022/05/01 09:53:03;;;;;;;;;;;;;;;24.11;15.80;100854.53;5096450;28;19923;-77
2022/05/01 09:55:29;;;;;;;;;;;;;;;24.07;15.78;100854.25;5098415;28;19916;-78
2022/05/01 09:58:04;;;;;;;;;;;;;;;24.09;15.70;100843.88;5097380;28;19920;-78
2022/05/01 10:00:45;;;;;;;;;;;;;;;24.07;15.83;100848.78;5097985;28;19916;-78
2022/05/01 10:03:21;;;;;;;;;;;;;;;24.09;15.83;100846.63;5097826;28;19917;-77
2022/05/01 10:05:46;;;;;;;;;;;;;;;24.10;15.71;100848.28;5097331;28;19943;-78
2022/05/01 10:08:12;;;;;;;;;;;;;;;24.11;15.62;100855.38;5097487;28;19916;-78
2022/05/01 10:10:37;;;;;;;;;;;;;;;24.12;15.71;100843.34;5096512;28;19920;-76
2022/05/01 10:13:02;;;;;;;;;;;;;;;24.13;15.78;100853.19;5097595;28;19916;-80
2022/05/01 10:15:27;;;;;;;;;;;;;;;24.13;15.96;100850.47;5096629;28;19998;-77
2022/05/01 10:17:53;;;;;;;;;;;;;;;24.11;15.58;100844.47;5096461;28;20393;-77
2022/05/01 10:20:19;;;;;;;;;;;;;;;24.10;15.93;100840.06;5096045;28;19965;-77
2022/05/01 10:22:44;;;;;;;;;;;;;;;24.12;15.83;100837.91;5097462;28;20282;-76
2022/05/01 10:25:11;;;;;;;;;;;;;;;24.14;15.66;100841.16;5123464;27;19944;-78
2022/05/01 10:27:46;;;;;;;;;;;;;;;24.12;15.77;100835.16;5138028;27;19938;-79
2022/05/01 10:33:00;;;;;;;;;;;;;;;24.10;15.85;100842.00;5122399;27;19938;-77
2022/05/01 10:35:45;;;;;;;;;;;;;;;24.11;15.65;100830.81;5138057;27;19923;-77
2022/05/01 10:38:25;;;;;;;;;;;;;;;24.11;15.72;100835.44;5138060;27;20020;-75
2022/05/01 10:40:51;;;;;;;;;;;;;;;24.10;15.71;100834.63;5119549;27;19916;-78
2022/05/01 10:43:25;;;;;;;;;;;;;;;24.09;15.76;100824.78;5137806;27;19919;-78
2022/05/01 10:46:00;;;;;;;;;;;;;;;24.07;15.61;100824.22;5137881;27;20426;-76
2022/05/01 10:48:29;;;;;;;;;;;;;;;24.11;15.73;100824.50;5137807;27;19957;-78
2022/05/01 10:50:54;;;;;;;;;;;;;;;24.12;15.67;100821.50;5137260;27;20315;-77
2022/05/01 10:53:20;;;;;;;;;;;;;;;24.13;15.78;100814.16;5138131;27;19997;-77
2022/05/01 10:55:45;;;;;;;;;;;;;;;24.13;15.77;100809.50;5137799;27;19931;-77
2022/05/01 10:58:20;;;;;;;;;;;;;;;24.14;15.64;100818.53;5137464;27;19938;-78
2022/05/01 11:00:49;;;;;;;;;;;;;;;24.12;15.49;100812.50;5137702;27;20365;-78
2022/05/01 11:03:24;;;;;;;;;;;;;;;24.14;15.83;100805.69;5137706;27;20049;-76
2022/05/01 11:05:54;;;;;;;;;;;;;;;24.12;15.65;100807.84;5119062;27;19915;-78
2022/05/01 11:08:20;;;;;;;;;;;;;;;24.11;15.46;100800.78;5137171;27;20262;-76
2022/05/01 11:10:46;;;;;;;;;;;;;;;24.14;15.75;100797.50;5119362;27;19988;-78
2022/05/01 11:13:17;;;;;;;;;;;;;;;24.14;15.38;100800.22;5137410;27;19998;-76
2022/05/01 11:15:47;;;;;;;;;;;;;;;24.12;15.59;100796.94;5119112;27;19915;-78
2022/05/01 11:18:12;;;;;;;;;;;;;;;24.10;15.58;100796.41;5137374;27;19915;-79
2022/05/01 11:20:38;;;;;;;;;;;;;;;24.10;15.48;100795.59;5136969;27;19922;-76
2022/05/01 11:23:22;;;;;;;;;;;;;;;24.11;15.46;100800.78;5119117;27;19964;-79
2022/05/01 11:25:47;;;;;;;;;;;;;;;24.10;15.76;100790.94;5136956;27;19947;-76
2022/05/01 11:28:33;;;;;;;;;;;;;;;24.10;15.56;100796.41;5136987;27;20358;-78
2022/05/01 11:30:58;;;;;;;;;;;;;;;24.09;15.41;100797.47;5136769;27;19960;-77
2022/05/01 11:33:24;;;;;;;;;;;;;;;24.12;15.40;100796.13;5118993;27;19928;-76
2022/05/01 11:35:58;;;;;;;;;;;;;;;24.09;15.48;100797.47;5136775;27;19969;-78
2022/05/01 11:38:24;;;;;;;;;;;;;;;24.11;15.26;100795.31;5136927;27;20384;-77
2022/05/01 11:40:53;;;;;;;;;;;;;;;24.12;15.37;100796.94;5137363;27;19915;-77
2022/05/01 11:43:19;;;;;;;;;;;;;;;24.12;15.39;100786.00;5137298;27;20310;-77
2022/05/01 11:45:46;;;;;;;;;;;;;;;24.11;15.45;100789.84;5136997;27;19927;-77
2022/05/01 11:48:15;;;;;;;;;;;;;;;24.11;15.66;100789.84;5118962;27;19916;-79
2022/05/01 11:50:40;;;;;;;;;;;;;;;24.10;15.38;100790.94;5136805;27;20392;-77
2022/05/01 11:53:09;;;;;;;;;;;;;;;24.11;15.53;100789.84;5136406;27;19916;-78
2022/05/01 12:03:49;;;;;;;;;;;;;;;24.09;15.25;100789.28;5135835;27;19923;-77
2022/05/01 12:06:24;;;;;;;;;;;;;;;24.08;15.32;100789.56;5136462;27;19916;-78
2022/05/01 12:08:49;;;;;;;;;;;;;;;24.09;15.28;100793.94;5136265;27;20027;-79
2022/05/01 12:11:31;;;;;;;;;;;;;;;24.09;15.38;100792.00;5136197;27;20381;-78
2022/05/01 12:14:03;;;;;;;;;;;;;;;24.10;15.56;100785.47;5136629;27;19923;-78
2022/05/01 12:16:29;;;;;;;;;;;;;;;24.11;15.43;100789.00;5136828;27;19915;-78
2022/05/01 12:18:55;;;;;;;;;;;;;;;24.10;15.40;100781.94;5148014;27;19974;-78
2022/05/01 12:21:33;;;;;;;;;;;;;;;24.11;15.26;100778.94;5123198;27;19916;-77
2022/05/01 12:24:05;;;;;;;;;;;;;;;24.10;15.38;100777.28;5147876;27;19920;-78
2022/05/01 12:26:30;;;;;;;;;;;;;;;24.10;15.49;100774.56;5146778;27;20389;-79
2022/05/01 12:28:56;;;;;;;;;;;;;;;24.11;15.41;100769.91;5143059;27;19962;-78
2022/05/01 12:31:21;;;;;;;;;;;;;;;24.10;15.56;100760.91;5125155;27;20319;-78
2022/05/01 12:33:53;;;;;;;;;;;;;;;24.10;15.53;100763.63;5147455;27;19920;-77
2022/05/01 12:36:27;;;;;;;;;;;;;;;24.09;15.56;100753.78;5146308;27;20016;-78
2022/05/01 12:39:02;;;;;;;;;;;;;;;24.11;15.70;100762.56;5143996;27;19927;-77
2022/05/01 12:44:11;;;;;;;;;;;;;;;24.10;15.50;100744.50;5148380;27;19935;-77
2022/05/01 12:46:39;;;;;;;;;;;;;;;24.09;15.41;100748.31;5128674;27;19959;-77
2022/05/01 12:49:05;;;;;;;;;;;;;;;24.08;15.54;100745.88;5143959;27;19911;-79
2022/05/01 12:51:41;;;;;;;;;;;;;;;24.07;15.73;100747.78;5143322;27;19958;-77
2022/05/01 12:54:09;;;;;;;;;;;;;;;24.10;15.47;100749.16;5146447;27;19920;-77
2022/05/01 12:56:35;;;;;;;;;;;;;;;24.09;15.58;100745.59;5148438;27;19954;-77
2022/05/01 12:59:00;;;;;;;;;;;;;;;24.09;15.68;100740.13;5148594;27;19931;-77
2022/05/01 13:01:28;;;;;;;;;;;;;;;24.08;15.61;100741.25;5144595;27;19906;-77
2022/05/01 13:03:54;;;;;;;;;;;;;;;24.08;15.68;100746.69;5144220;27;19937;-78
2022/05/01 13:06:20;;;;;;;;;;;;;;;24.10;15.53;100744.50;5126636;27;19914;-78